createdAt,value
2019-03-24T00:01:41.467Z,101592.97
2019-03-24T00:04:47.913Z,101607.17
2019-03-24T00:07:56.810Z,101607.00
2019-03-24T00:11:03.560Z,101611.15
2019-03-24T00:14:10.449Z,101611.15
2019-03-24T00:17:17.471Z,101606.73
2019-03-24T00:20:24.534Z,101609.62
2019-03-24T00:23:31.357Z,101615.20
2019-03-24T00:26:38.238Z,101621.64
2019-03-24T00:29:45.340Z,101618.27
2019-03-24T00:32:52.177Z,101627.36
2019-03-24T00:35:59.057Z,101644.26
2019-03-24T00:39:07.241Z,101624.65
2019-03-24T00:42:14.200Z,101630.20
2019-03-24T00:45:21.108Z,101639.16
2019-03-24T00:48:27.976Z,101634.43
2019-03-24T00:51:34.792Z,101635.19
2019-03-24T00:54:42.643Z,101631.80
2019-03-24T00:57:49.518Z,101632.30
2019-03-24T01:00:56.440Z,101634.02
2019-03-24T01:04:03.284Z,101620.79
2019-03-24T01:07:10.711Z,101621.05
2019-03-24T01:10:18.054Z,101621.05
2019-03-24T01:13:27.633Z,101637.14
2019-03-24T01:16:34.782Z,101631.24
2019-03-24T01:19:41.799Z,101641.66
2019-03-24T01:22:48.680Z,101641.66
2019-03-24T01:25:55.606Z,101654.15
2019-03-24T01:29:02.495Z,101654.20
2019-03-24T01:32:10.253Z,101659.63
2019-03-24T01:35:17.500Z,101673.81
2019-03-24T01:38:24.313Z,101671.53
2019-03-24T01:41:32.110Z,101684.55
2019-03-24T01:44:39.988Z,101692.15
2019-03-24T01:47:47.054Z,101684.47
2019-03-24T01:50:54.005Z,101690.56
2019-03-24T01:54:01.142Z,101695.39
2019-03-24T01:57:10.150Z,101705.42
2019-03-24T02:00:17.089Z,101698.55
2019-03-24T02:03:24.249Z,101690.42
2019-03-24T02:06:31.150Z,101697.30
2019-03-24T02:09:38.457Z,101685.42
2019-03-24T02:12:45.814Z,101685.80
2019-03-24T02:15:52.675Z,101704.66
2019-03-24T02:18:59.657Z,101712.30
2019-03-24T02:22:06.542Z,101713.52
2019-03-24T02:25:13.387Z,101724.13
2019-03-24T02:28:20.220Z,101715.66
2019-03-24T02:31:27.206Z,101711.61
2019-03-24T02:34:34.261Z,101715.08
2019-03-24T02:37:41.117Z,101725.88
2019-03-24T02:40:48.011Z,101729.05
2019-03-24T02:43:55.033Z,101730.03
2019-03-24T02:47:01.959Z,101734.06
2019-03-24T02:50:09.193Z,101742.55
2019-03-24T02:53:16.081Z,101737.62
2019-03-24T02:56:22.965Z,101741.47
2019-03-24T02:59:29.970Z,101738.70
2019-03-24T03:02:37.006Z,101743.12
2019-03-24T03:05:43.972Z,101744.77
2019-03-24T03:08:51.295Z,101753.23
2019-03-24T03:11:58.369Z,101741.08
2019-03-24T03:15:06.246Z,101740.12
2019-03-24T03:18:13.145Z,101749.77
2019-03-24T03:21:20.261Z,101762.88
2019-03-24T03:24:27.207Z,101763.46
2019-03-24T03:27:34.329Z,101776.92
2019-03-24T03:30:41.170Z,101766.06
2019-03-24T03:33:48.129Z,101761.45
2019-03-24T03:36:55.344Z,101769.52
2019-03-24T03:40:02.381Z,101762.95
2019-03-24T03:43:09.720Z,101760.13
2019-03-24T03:46:16.776Z,101758.77
2019-03-24T03:49:23.744Z,101763.58
2019-03-24T03:52:30.660Z,101760.58
2019-03-24T03:55:37.619Z,101758.06
2019-03-24T03:58:44.668Z,101764.12
2019-03-24T04:01:54.176Z,101763.15
2019-03-24T04:05:01.141Z,101781.54
2019-03-24T04:08:08.038Z,101789.02
2019-03-24T04:11:14.963Z,101788.61
2019-03-24T04:14:21.908Z,101797.44
2019-03-24T04:17:29.186Z,101795.59
2019-03-24T04:20:35.962Z,101796.30
2019-03-24T04:23:43.103Z,101810.15
2019-03-24T04:26:50.128Z,101812.84
2019-03-24T04:29:57.028Z,101819.42
2019-03-24T04:33:03.951Z,101811.73
2019-03-24T04:36:11.039Z,101816.72
2019-03-24T04:39:18.007Z,101821.88
2019-03-24T04:42:25.040Z,101817.00
2019-03-24T04:45:32.920Z,101829.55
2019-03-24T04:48:40.081Z,101814.84
2019-03-24T04:51:47.007Z,101819.75
2019-03-24T04:54:54.083Z,101826.77
2019-03-24T04:58:01.085Z,101835.59
2019-03-24T05:01:08.748Z,101836.21
2019-03-24T05:04:16.076Z,101838.62
2019-03-24T05:07:23.021Z,101835.80
2019-03-24T05:10:30.064Z,101836.99
2019-03-24T05:13:38.499Z,101837.23
2019-03-24T05:16:45.575Z,101847.86
2019-03-24T05:19:52.554Z,101847.60
2019-03-24T05:22:59.846Z,101847.31
2019-03-24T05:26:06.766Z,101825.95
2019-03-24T05:29:13.680Z,101855.09
2019-03-24T05:32:22.572Z,101847.60
2019-03-24T05:35:29.493Z,101855.69
2019-03-24T05:38:36.650Z,101848.58
2019-03-24T05:41:43.579Z,101848.58
2019-03-24T05:44:50.506Z,101845.75
2019-03-24T05:47:57.375Z,101845.75
2019-03-24T05:51:04.439Z,101860.44
2019-03-24T05:54:12.280Z,101862.20
2019-03-24T05:57:19.567Z,101864.48
2019-03-24T06:00:26.577Z,101873.97
2019-03-24T06:03:33.500Z,101866.89
2019-03-24T06:06:40.753Z,101872.42
2019-03-24T06:09:48.140Z,101869.12
2019-03-24T06:12:55.043Z,101866.59
2019-03-24T06:16:02.281Z,101865.44
2019-03-24T06:19:09.451Z,101871.41
2019-03-24T06:22:16.445Z,101875.25
2019-03-24T06:25:23.327Z,101876.16
2019-03-24T06:28:30.639Z,101878.70
2019-03-24T06:31:37.620Z,101866.97
2019-03-24T06:34:44.598Z,101874.08
2019-03-24T06:37:51.870Z,101883.98
2019-03-24T06:40:58.688Z,101867.17
2019-03-24T06:44:06.689Z,101859.69
2019-03-24T06:47:13.723Z,101859.69
2019-03-24T06:50:20.726Z,101867.46
2019-03-24T06:53:27.567Z,101866.84
2019-03-24T06:56:34.633Z,101882.30
2019-03-24T06:59:41.640Z,101862.30
2019-03-24T07:02:48.552Z,101868.27
2019-03-24T07:05:55.632Z,101870.80
2019-03-24T07:09:04.969Z,101862.04
2019-03-24T07:12:11.925Z,101863.70
2019-03-24T07:15:18.952Z,101866.97
2019-03-24T07:18:26.042Z,101863.11
2019-03-24T07:21:33.141Z,101864.17
2019-03-24T07:24:40.283Z,101854.45
2019-03-24T07:27:47.074Z,101855.25
2019-03-24T07:30:54.145Z,101860.36
2019-03-24T07:34:01.291Z,101856.09
2019-03-24T07:37:08.300Z,101842.32
2019-03-24T07:40:15.436Z,101845.88
2019-03-24T07:43:22.414Z,101849.36
2019-03-24T07:46:30.935Z,101846.39
2019-03-24T07:49:39.037Z,101844.90
2019-03-24T07:52:46.017Z,101840.64
2019-03-24T07:55:53.143Z,101838.31
2019-03-24T07:59:01.288Z,101827.69
2019-03-24T08:02:08.594Z,101835.31
2019-03-24T08:05:15.409Z,101840.46
2019-03-24T08:08:22.348Z,101826.25
2019-03-24T08:11:29.420Z,101828.66
2019-03-24T08:14:36.792Z,101823.31
2019-03-24T08:17:43.748Z,101821.95
2019-03-24T08:20:50.744Z,101826.05
2019-03-24T08:23:57.798Z,101760.94
2019-03-24T08:27:04.780Z,101803.13
2019-03-24T08:30:19.312Z,101815.54
2019-03-24T08:33:31.145Z,101806.67
2019-03-24T08:36:38.133Z,101800.48
2019-03-24T08:39:52.273Z,101788.77
2019-03-24T08:43:00.254Z,101784.76
2019-03-24T08:46:07.299Z,101780.27
2019-03-24T08:49:16.480Z,101779.33
2019-03-24T08:52:23.589Z,101781.75
2019-03-24T08:55:33.552Z,101774.94
2019-03-24T08:58:40.515Z,101775.21
2019-03-24T09:01:48.201Z,101769.39
2019-03-24T09:04:55.333Z,101771.47
2019-03-24T09:08:02.182Z,101759.16
2019-03-24T09:11:09.190Z,101752.70
2019-03-24T09:14:19.228Z,101752.84
2019-03-24T09:17:27.798Z,101748.81
2019-03-24T09:20:41.622Z,101746.03
2019-03-24T09:23:43.955Z,101743.38
2019-03-24T09:26:51.226Z,101739.75
2019-03-24T09:29:58.234Z,101732.16
2019-03-24T09:33:07.937Z,101738.45
2019-03-24T09:36:14.798Z,101741.09
2019-03-24T09:39:23.370Z,101737.89
2019-03-24T09:42:30.560Z,101743.17
2019-03-24T09:45:44.105Z,101735.99
2019-03-24T09:49:03.229Z,101737.51
2019-03-24T09:52:11.024Z,101726.13
2019-03-24T09:55:18.863Z,101719.91
2019-03-24T09:58:26.946Z,101712.36
2019-03-24T10:01:33.915Z,101708.66
2019-03-24T10:04:41.001Z,101694.97
2019-03-24T10:07:48.030Z,101689.94
2019-03-24T10:10:55.104Z,101688.55
2019-03-24T10:14:02.324Z,101683.67
2019-03-24T10:17:10.777Z,101676.58
2019-03-24T10:20:18.218Z,101669.07
2019-03-24T10:23:30.915Z,101655.31
2019-03-24T10:26:38.160Z,101659.73
2019-03-24T10:29:45.342Z,101644.41
2019-03-24T10:32:54.321Z,101639.65
2019-03-24T10:36:02.664Z,101640.47
2019-03-24T10:39:09.703Z,101643.92
2019-03-24T10:42:18.110Z,101629.39
2019-03-24T10:45:25.200Z,101637.16
2019-03-24T10:48:33.926Z,101638.02
2019-03-24T10:51:41.105Z,101640.47
2019-03-24T10:54:48.185Z,101626.90
2019-03-24T10:57:55.045Z,101626.99
2019-03-24T11:01:01.961Z,101626.94
2019-03-24T11:04:09.079Z,101625.56
2019-03-24T11:07:16.222Z,101619.70
2019-03-24T11:10:26.356Z,101618.26
2019-03-24T11:13:33.301Z,101615.91
2019-03-24T11:16:40.232Z,101615.91
2019-03-24T11:19:47.892Z,101606.75
2019-03-24T11:22:55.137Z,101605.77
2019-03-24T11:26:03.491Z,101588.63
2019-03-24T11:29:10.481Z,101584.35
2019-03-24T11:32:17.761Z,101587.71
2019-03-24T11:35:27.587Z,101542.47
2019-03-24T11:38:34.465Z,101575.23
2019-03-24T11:41:41.756Z,101577.28
2019-03-24T11:44:48.842Z,101565.92
2019-03-24T11:47:55.824Z,101557.79
2019-03-24T11:51:02.739Z,101544.77
2019-03-24T11:54:09.737Z,101529.19
2019-03-24T11:57:16.903Z,101532.26
2019-03-24T12:00:40.130Z,101525.64
2019-03-24T12:03:47.149Z,101507.41
2019-03-24T12:06:54.133Z,101507.13
2019-03-24T12:10:01.092Z,101496.58
2019-03-24T12:13:08.912Z,101479.05
2019-03-24T12:16:16.101Z,101470.32
2019-03-24T12:19:23.441Z,101478.13
2019-03-24T12:22:30.792Z,101461.23
2019-03-24T12:25:37.880Z,101455.24
2019-03-24T12:28:44.825Z,101449.64
2019-03-24T12:31:51.799Z,101447.55
2019-03-24T12:34:59.173Z,101439.34
2019-03-24T12:38:06.317Z,101440.80
2019-03-24T12:41:13.265Z,101429.70
2019-03-24T12:44:20.255Z,101422.44
2019-03-24T12:47:27.394Z,101347.75
2019-03-24T12:50:34.325Z,101412.53
2019-03-24T12:53:41.787Z,101411.35
2019-03-24T12:56:48.786Z,101408.30
2019-03-24T12:59:55.809Z,101392.92
2019-03-24T13:03:05.539Z,101393.32
2019-03-24T13:06:12.440Z,101376.61
2019-03-24T13:09:19.254Z,101372.13
2019-03-24T13:12:26.260Z,101377.74
2019-03-24T13:15:33.258Z,101368.63
2019-03-24T13:18:41.623Z,101359.98
2019-03-24T13:21:48.579Z,101347.70
2019-03-24T13:24:57.379Z,101346.95
2019-03-24T13:28:04.597Z,101353.69
2019-03-24T13:31:11.567Z,101351.52
2019-03-24T13:34:18.621Z,101350.91
2019-03-24T13:37:25.967Z,101353.50
2019-03-24T13:40:33.076Z,101344.31
2019-03-24T13:43:39.995Z,101352.78
2019-03-24T13:46:48.452Z,101347.95
2019-03-24T13:49:55.903Z,101345.22
2019-03-24T13:53:02.890Z,101332.84
2019-03-24T13:56:09.984Z,101320.47
2019-03-24T13:59:17.167Z,101315.16
2019-03-24T14:02:24.219Z,101314.78
2019-03-24T14:05:31.244Z,101309.44
2019-03-24T14:08:38.487Z,101298.99
2019-03-24T14:11:45.476Z,101302.61
2019-03-24T14:14:52.510Z,101288.73
2019-03-24T14:17:59.792Z,101276.97
2019-03-24T14:21:06.701Z,101281.48
2019-03-24T14:24:15.925Z,101266.88
2019-03-24T14:27:25.359Z,101269.19
2019-03-24T14:30:48.618Z,101271.09
2019-03-24T14:33:55.488Z,101255.76
2019-03-24T14:37:03.412Z,101252.61
2019-03-24T14:40:11.467Z,101223.95
2019-03-24T14:43:18.502Z,101236.85
2019-03-24T14:46:25.424Z,101231.18
2019-03-24T14:49:32.385Z,101215.44
2019-03-24T14:53:01.574Z,101227.41
2019-03-24T14:56:14.311Z,101216.92
2019-03-24T14:59:30.731Z,101224.75
2019-03-24T15:02:41.745Z,101224.75
2019-03-24T15:05:54.201Z,101220.02
2019-03-24T15:09:02.643Z,101219.77
2019-03-24T15:12:12.574Z,101227.25
2019-03-24T15:15:19.511Z,101207.61
2019-03-24T15:18:26.476Z,101208.97
2019-03-24T15:21:33.443Z,101210.38
2019-03-24T15:24:40.461Z,101177.34
2019-03-24T15:27:47.775Z,101212.25
2019-03-24T15:30:54.731Z,101200.11
2019-03-24T15:34:01.652Z,101207.11
2019-03-24T15:37:08.617Z,101207.11
2019-03-24T15:40:16.265Z,101215.70
2019-03-24T15:43:23.114Z,101212.48
2019-03-24T15:46:30.481Z,101212.48
2019-03-24T15:49:37.298Z,101213.84
2019-03-24T15:52:44.217Z,101212.03
2019-03-24T15:55:51.723Z,101208.41
2019-03-24T15:58:58.561Z,101207.28
2019-03-24T16:02:05.516Z,101198.20
2019-03-24T16:05:17.910Z,101197.59
2019-03-24T16:08:24.993Z,101196.88
2019-03-24T16:11:31.886Z,101189.53
2019-03-24T16:14:38.752Z,101186.11
2019-03-24T16:17:45.775Z,101178.27
2019-03-24T16:20:52.759Z,101176.66
2019-03-24T16:23:59.867Z,101178.91
2019-03-24T16:27:06.902Z,101176.64
2019-03-24T16:30:14.965Z,101175.66
2019-03-24T16:33:22.157Z,101175.03
2019-03-24T16:36:29.149Z,101169.36
2019-03-24T16:39:36.195Z,101168.48
2019-03-24T16:42:43.743Z,101174.05
2019-03-24T16:45:53.827Z,101173.75
2019-03-24T16:49:00.688Z,101171.72
2019-03-24T16:52:09.443Z,101170.11
2019-03-24T16:55:16.388Z,101174.35
2019-03-24T16:58:23.585Z,101154.73
2019-03-24T17:01:33.449Z,101159.19
2019-03-24T17:04:40.374Z,101156.58
2019-03-24T17:07:48.789Z,101154.20
2019-03-24T17:10:55.935Z,101154.52
2019-03-24T17:14:03.085Z,101162.13
2019-03-24T17:17:11.537Z,101159.52
2019-03-24T17:20:18.852Z,101154.93
2019-03-24T17:23:25.782Z,101158.59
2019-03-24T17:26:34.644Z,101152.72
2019-03-24T17:29:41.676Z,101155.00
2019-03-24T17:32:49.368Z,101160.09
2019-03-24T17:35:56.358Z,101156.03
2019-03-24T17:39:03.421Z,101150.97
2019-03-24T17:42:11.145Z,101143.11
2019-03-24T17:45:18.374Z,101151.02
2019-03-24T17:48:25.358Z,101143.75
2019-03-24T17:51:32.280Z,101147.45
2019-03-24T17:54:40.192Z,101146.89
2019-03-24T17:57:48.394Z,101141.23
2019-03-24T18:00:56.915Z,101139.74
2019-03-24T18:04:04.233Z,101135.70
2019-03-24T18:07:11.227Z,101127.86
2019-03-24T18:10:18.143Z,101113.73
2019-03-24T18:13:25.297Z,101117.94
2019-03-24T18:16:35.155Z,101119.05
2019-03-24T18:19:42.138Z,101116.16
2019-03-24T18:22:56.978Z,101122.16
2019-03-24T18:26:10.285Z,101120.20
2019-03-24T18:29:17.442Z,101122.31
2019-03-24T18:32:24.853Z,101117.40
2019-03-24T18:35:36.792Z,101116.45
2019-03-24T18:38:46.719Z,101100.54
2019-03-24T18:41:55.140Z,101112.56
2019-03-24T18:45:02.136Z,101110.89
2019-03-24T18:48:19.979Z,101118.55
2019-03-24T18:51:30.136Z,101105.25
2019-03-24T18:54:43.476Z,101109.41
2019-03-24T18:57:54.860Z,101100.78
2019-03-24T19:01:10.864Z,101096.48
2019-03-24T19:04:20.649Z,101091.78
2019-03-24T19:07:28.072Z,101080.22
2019-03-24T19:10:36.852Z,101083.59
2019-03-24T19:13:56.313Z,101076.88
2019-03-24T19:17:04.679Z,101063.75
2019-03-24T19:20:11.826Z,101061.24
2019-03-24T19:23:23.319Z,101057.67
2019-03-24T19:26:33.901Z,101060.45
2019-03-24T19:29:41.021Z,101059.67
2019-03-24T19:32:52.223Z,101067.89
2019-03-24T19:36:02.023Z,101064.17
2019-03-24T19:39:09.959Z,101057.11
2019-03-24T19:42:16.898Z,101056.31
2019-03-24T19:45:24.025Z,101065.09
2019-03-24T19:48:31.125Z,101064.68
2019-03-24T19:51:38.283Z,101059.45
2019-03-24T19:54:46.384Z,101056.18
2019-03-24T19:57:53.308Z,101049.51
2019-03-24T20:01:00.214Z,101047.41
2019-03-24T20:04:07.208Z,101046.45
2019-03-24T20:07:14.386Z,101050.53
2019-03-24T20:10:22.362Z,101044.11
2019-03-24T20:13:29.431Z,101031.58
2019-03-24T20:16:36.689Z,101034.36
2019-03-24T20:19:43.888Z,101023.03
2019-03-24T20:22:56.542Z,101024.20
2019-03-24T20:25:59.417Z,101020.52
2019-03-24T20:29:07.795Z,101017.13
2019-03-24T20:32:14.966Z,101023.16
2019-03-24T20:35:22.035Z,101002.64
2019-03-24T20:38:29.212Z,100998.12
2019-03-24T20:41:36.096Z,100993.36
2019-03-24T20:44:43.105Z,101006.73
2019-03-24T20:47:51.412Z,101022.22
2019-03-24T20:50:59.015Z,101002.73
2019-03-24T20:54:14.335Z,101004.74
2019-03-24T20:57:28.195Z,100999.28
2019-03-24T21:00:36.820Z,100915.98
2019-03-24T21:03:45.277Z,100994.98
2019-03-24T21:06:52.571Z,100995.33
2019-03-24T21:10:01.393Z,100988.50
2019-03-24T21:13:09.863Z,100983.41
2019-03-24T21:16:16.810Z,100987.32
2019-03-24T21:19:24.302Z,100974.73
2019-03-24T21:22:33.099Z,100981.41
2019-03-24T21:25:40.162Z,100978.33
2019-03-24T21:28:47.064Z,100980.73
2019-03-24T21:31:55.203Z,100970.96
2019-03-24T21:35:02.303Z,100970.96
2019-03-24T21:38:09.249Z,100972.31
2019-03-24T21:41:16.623Z,100965.81
2019-03-24T21:44:23.746Z,100967.37
2019-03-24T21:47:30.683Z,100975.02
2019-03-24T21:50:37.677Z,100972.97
2019-03-24T21:53:44.742Z,100961.30
2019-03-24T21:56:51.666Z,100966.56
2019-03-24T21:59:58.645Z,100963.80
2019-03-24T22:03:06.237Z,100964.52
2019-03-24T22:06:13.189Z,100975.72
2019-03-24T22:09:20.102Z,100968.25
2019-03-24T22:12:28.497Z,100969.61
2019-03-24T22:15:35.518Z,100966.05
2019-03-24T22:18:42.473Z,100938.80
2019-03-24T22:21:49.440Z,100958.72
2019-03-24T22:24:56.459Z,100953.13
2019-03-24T22:28:03.532Z,100941.00
2019-03-24T22:31:10.334Z,100937.48
2019-03-24T22:34:17.246Z,100926.16
2019-03-24T22:37:24.416Z,100929.33
2019-03-24T22:40:31.622Z,100932.44
2019-03-24T22:43:39.003Z,100928.06
2019-03-24T22:46:45.968Z,100921.94
2019-03-24T22:49:52.884Z,100931.30
2019-03-24T22:52:59.762Z,100931.30
2019-03-24T22:56:06.891Z,100919.16
2019-03-24T22:59:13.938Z,100914.15
2019-03-24T23:02:21.310Z,100928.95
2019-03-24T23:05:28.311Z,100926.81
2019-03-24T23:08:35.125Z,100923.09
2019-03-24T23:11:43.082Z,100923.98
2019-03-24T23:14:50.108Z,100921.41
2019-03-24T23:17:57.361Z,100916.37
2019-03-24T23:21:04.353Z,100909.13
2019-03-24T23:24:15.736Z,100909.27
2019-03-24T23:27:20.510Z,100903.94
2019-03-24T23:30:27.389Z,100897.52
2019-03-24T23:33:34.373Z,100902.92
2019-03-24T23:36:41.457Z,100896.53
2019-03-24T23:39:48.456Z,100890.47
2019-03-24T23:42:55.537Z,100879.82
2019-03-24T23:46:02.844Z,100879.33
2019-03-24T23:49:09.857Z,100885.41
2019-03-24T23:52:16.810Z,100880.52
2019-03-24T23:55:25.298Z,100885.08
2019-03-24T23:58:40.857Z,100879.34
